Time;durP1;ratioP1;P1;durP2;ratioP2;P2;SDS_P1;SDS_P2;PMS_P1;PMS_P2;Temp;Humidity;BMP_temperature;BMP_pressure;BME280_temperature;BME280_humidity;BME280_pressure;Samples;Min_cycle;Max_cycle;Signal;HPM_P1;HPM_P2
2020/12/23 00:02:02;;;;;;;9.93;4.20;;;12.70;99.90;;;;;;5070777;28;20044;-52
2020/12/23 00:04:28;;;;;;;21.58;5.30;;;12.70;99.90;;;;;;5070760;28;20028;-54
2020/12/23 00:06:55;;;;;;;21.30;4.97;;;12.70;99.90;;;;;;5071030;28;20028;-55
2020/12/23 00:09:21;;;;;;;19.65;3.47;;;12.70;99.90;;;;;;5070717;28;20035;-52
2020/12/23 00:11:56;;;;;;;11.30;3.08;;;12.80;99.90;;;;;;5071137;28;20054;-52
2020/12/23 00:14:22;;;;;;;13.48;2.83;;;12.80;99.90;;;;;;5071051;28;20036;-54
2020/12/23 00:16:48;;;;;;;13.15;2.63;;;12.80;99.90;;;;;;5070736;28;20067;-55
2020/12/23 00:19:14;;;;;;;12.50;2.67;;;12.70;99.90;;;;;;5070203;28;20037;-55
2020/12/23 00:21:40;;;;;;;11.45;2.28;;;12.80;99.90;;;;;;5070538;28;20052;-55
2020/12/23 00:24:05;;;;;;;10.35;2.80;;;12.80;99.90;;;;;;5070258;28;20124;-56
2020/12/23 00:26:31;;;;;;;18.10;3.30;;;12.80;99.90;;;;;;5070534;28;20089;-52
2020/12/23 00:28:57;;;;;;;22.65;3.97;;;12.80;99.90;;;;;;5070294;28;20144;-52
2020/12/23 00:31:22;;;;;;;28.52;3.55;;;12.80;99.90;;;;;;5070333;28;20031;-52
2020/12/23 00:33:48;;;;;;;20.90;4.00;;;12.80;99.90;;;;;;5070255;28;20059;-51
2020/12/23 00:36:14;;;;;;;21.13;3.30;;;12.90;99.90;;;;;;5070467;28;20032;-51
2020/12/23 00:38:41;;;;;;;20.30;3.35;;;12.80;99.90;;;;;;5070080;28;20040;-52
2020/12/23 00:41:10;;;;;;;20.13;3.60;;;12.80;99.90;;;;;;5069723;28;20581;-53
2020/12/23 00:43:36;;;;;;;19.35;3.45;;;12.80;99.90;;;;;;5070430;28;20111;-54
2020/12/23 00:46:02;;;;;;;9.70;2.30;;;12.90;99.90;;;;;;5070164;28;20024;-50
2020/12/23 00:48:28;;;;;;;12.55;2.33;;;12.90;99.90;;;;;;5069924;28;20483;-55
2020/12/23 00:50:54;;;;;;;21.23;2.90;;;12.90;99.90;;;;;;5070414;28;20033;-54
2020/12/23 00:53:19;;;;;;;26.17;3.30;;;12.90;99.90;;;;;;5069711;28;20036;-54
2020/12/23 00:55:45;;;;;;;22.60;3.55;;;12.90;99.90;;;;;;5069658;28;20036;-51
2020/12/23 00:58:11;;;;;;;26.08;3.53;;;12.90;99.90;;;;;;5072302;28;20031;-52
2020/12/23 01:00:37;;;;;;;28.70;3.65;;;12.80;99.90;;;;;;5069839;28;20404;-55
2020/12/23 01:03:03;;;;;;;23.73;3.22;;;12.90;99.90;;;;;;5069342;28;20035;-52
2020/12/23 01:05:28;;;;;;;17.77;3.17;;;12.90;99.90;;;;;;5069588;28;20078;-51
2020/12/23 01:07:54;;;;;;;20.60;2.60;;;12.80;99.90;;;;;;5069622;28;20021;-51
2020/12/23 01:10:19;;;;;;;28.95;3.83;;;12.80;99.90;;;;;;5069765;28;20588;-51
2020/12/23 01:12:45;;;;;;;31.88;4.43;;;12.90;99.90;;;;;;5069732;28;20032;-53
2020/12/23 01:15:11;;;;;;;13.82;2.33;;;12.90;99.90;;;;;;5069623;28;20485;-51
2020/12/23 01:17:36;;;;;;;19.90;3.03;;;12.80;99.90;;;;;;5069647;28;20071;-55
2020/12/23 01:20:03;;;;;;;26.13;2.40;;;12.80;99.90;;;;;;5069537;28;20125;-55
2020/12/23 01:22:29;;;;;;;18.73;2.75;;;12.80;99.90;;;;;;5069317;28;20037;-52
2020/12/23 01:24:55;;;;;;;25.02;3.45;;;12.80;99.90;;;;;;5069310;28;20047;-54
2020/12/23 01:27:21;;;;;;;25.83;3.58;;;12.80;99.90;;;;;;5071021;28;20032;-54
2020/12/23 01:29:46;;;;;;;18.95;2.28;;;12.80;99.90;;;;;;5069295;28;20037;-54
2020/12/23 01:32:12;;;;;;;22.27;3.78;;;12.80;99.90;;;;;;5069044;28;20039;-55
2020/12/23 01:34:37;;;;;;;25.52;2.58;;;12.80;99.90;;;;;;5068971;28;20146;-53
2020/12/23 01:37:03;;;;;;;21.20;2.50;;;12.80;99.90;;;;;;5068945;28;20036;-54
2020/12/23 01:39:29;;;;;;;18.45;2.28;;;12.80;99.90;;;;;;5068859;28;20105;-56
2020/12/23 01:41:56;;;;;;;27.33;2.90;;;12.80;99.90;;;;;;5068944;28;20063;-56
2020/12/23 01:44:22;;;;;;;20.83;2.80;;;12.80;99.90;;;;;;5069118;28;20063;-57
2020/12/23 01:46:49;;;;;;;33.05;3.60;;;12.80;99.90;;;;;;5069348;28;20067;-57
2020/12/23 01:49:15;;;;;;;19.33;2.70;;;12.80;99.90;;;;;;5068490;28;20119;-57
2020/12/23 01:51:41;;;;;;;23.80;3.50;;;12.70;99.90;;;;;;5068559;28;20524;-57
2020/12/23 01:54:07;;;;;;;33.55;3.60;;;12.80;99.90;;;;;;5068185;28;20028;-54
2020/12/23 01:56:35;;;;;;;23.38;3.00;;;12.80;99.90;;;;;;5068686;28;20066;-57
2020/12/23 01:59:01;;;;;;;30.50;2.60;;;12.80;99.90;;;;;;5067998;28;20533;-58
2020/12/23 02:01:29;;;;;;;31.05;2.80;;;12.80;99.90;;;;;;5068814;28;20032;-58
2020/12/23 02:03:55;;;;;;;35.45;3.63;;;12.80;99.90;;;;;;5068114;28;20056;-54
2020/12/23 02:06:21;;;;;;;23.08;2.30;;;12.70;99.90;;;;;;5068536;28;20071;-53
2020/12/23 02:08:49;;;;;;;27.95;2.90;;;12.70;99.90;;;;;;5050287;28;20028;-56
2020/12/23 02:11:14;;;;;;;30.80;2.75;;;12.70;99.90;;;;;;5068593;28;20036;-54
2020/12/23 02:13:43;;;;;;;28.83;3.00;;;12.70;99.90;;;;;;5068473;28;20026;-54
2020/12/23 02:16:09;;;;;;;14.90;2.75;;;12.70;99.90;;;;;;5068627;28;20131;-53
2020/12/23 02:18:35;;;;;;;16.63;2.40;;;12.80;99.90;;;;;;5068431;28;20107;-54
2020/12/23 02:21:02;;;;;;;38.38;3.65;;;12.70;99.90;;;;;;5068468;28;20055;-51
2020/12/23 02:23:28;;;;;;;26.85;2.85;;;12.70;99.90;;;;;;5068076;28;20056;-56
2020/12/23 02:25:54;;;;;;;30.30;3.03;;;12.70;99.90;;;;;;5068170;28;20565;-54
2020/12/23 02:28:21;;;;;;;25.00;3.30;;;12.70;99.90;;;;;;5068075;28;20043;-53
2020/12/23 02:30:48;;;;;;;35.28;3.30;;;12.70;99.90;;;;;;5071094;28;20028;-52
2020/12/23 02:33:14;;;;;;;34.33;2.85;;;12.70;99.90;;;;;;5068139;28;20356;-51
2020/12/23 02:35:39;;;;;;;26.58;3.67;;;12.70;99.90;;;;;;5068817;28;20040;-54
2020/12/23 02:38:05;;;;;;;36.42;2.92;;;12.60;99.90;;;;;;5068754;28;20051;-53
2020/12/23 02:40:31;;;;;;;23.38;3.42;;;12.60;99.90;;;;;;5068574;28;20045;-50
2020/12/23 02:42:56;;;;;;;20.52;3.10;;;12.60;99.90;;;;;;5068840;28;20033;-52
2020/12/23 02:45:22;;;;;;;26.77;2.90;;;12.60;99.90;;;;;;5070739;28;20025;-52
2020/12/23 02:47:48;;;;;;;37.22;3.58;;;12.60;99.90;;;;;;5089304;28;20038;-52
2020/12/23 02:50:13;;;;;;;33.92;2.65;;;12.60;99.90;;;;;;5089378;28;20123;-53
2020/12/23 02:52:39;;;;;;;36.05;3.20;;;12.50;99.90;;;;;;5087658;28;20902;-52
2020/12/23 02:55:05;;;;;;;34.85;3.55;;;12.50;99.90;;;;;;5087949;28;20394;-50
2020/12/23 02:57:30;;;;;;;40.90;3.42;;;12.50;99.90;;;;;;5089386;28;20051;-54
2020/12/23 02:59:56;;;;;;;34.10;3.05;;;12.50;99.90;;;;;;5089283;28;20047;-53
2020/12/23 03:02:21;;;;;;;32.72;3.05;;;12.50;99.90;;;;;;5070923;28;20445;-52
2020/12/23 03:04:47;;;;;;;41.70;3.10;;;12.40;99.90;;;;;;5092183;28;20032;-53
2020/12/23 03:07:13;;;;;;;30.75;3.25;;;12.40;99.90;;;;;;5093334;28;20032;-51
2020/12/23 03:09:38;;;;;;;36.50;3.42;;;12.40;99.90;;;;;;5093332;28;20390;-52
2020/12/23 03:12:04;;;;;;;26.30;3.03;;;12.40;99.90;;;;;;5093313;28;20032;-53
2020/12/23 03:14:29;;;;;;;37.40;3.65;;;12.30;99.90;;;;;;5093202;28;20386;-53
2020/12/23 03:16:55;;;;;;;28.25;3.58;;;12.30;99.90;;;;;;5093015;28;20035;-53
2020/12/23 03:19:21;;;;;;;37.80;3.45;;;12.30;99.90;;;;;;5092767;28;20085;-51
2020/12/23 03:21:46;;;;;;;31.27;3.13;;;12.30;99.90;;;;;;5093186;28;20036;-51
2020/12/23 03:24:12;;;;;;;28.55;2.20;;;12.30;99.90;;;;;;5089602;28;20537;-50
2020/12/23 03:26:37;;;;;;;21.83;2.40;;;12.30;99.90;;;;;;5092716;28;20039;-51
2020/12/23 03:29:03;;;;;;;33.47;2.85;;;12.20;99.90;;;;;;5092920;28;20036;-53
2020/12/23 03:31:29;;;;;;;31.60;2.67;;;12.30;99.90;;;;;;5092824;28;20390;-50
2020/12/23 03:33:56;;;;;;;35.45;3.55;;;12.30;99.90;;;;;;5092716;28;20370;-52
2020/12/23 03:36:22;;;;;;;19.27;2.60;;;12.30;99.90;;;;;;5092579;28;20040;-49
2020/12/23 03:38:48;;;;;;;23.02;1.90;;;12.30;99.90;;;;;;5092608;28;20039;-53
2020/12/23 03:41:14;;;;;;;37.80;2.88;;;12.30;99.90;;;;;;5092718;28;20382;-50
2020/12/23 03:43:39;;;;;;;18.98;1.98;;;12.30;99.90;;;;;;5092749;28;20063;-51
2020/12/23 03:46:05;;;;;;;21.60;2.45;;;12.20;99.90;;;;;;5092365;28;20154;-52
2020/12/23 03:48:30;;;;;;;17.67;2.08;;;12.30;99.90;;;;;;5092496;28;20119;-51
2020/12/23 03:50:56;;;;;;;33.75;3.80;;;12.30;99.90;;;;;;5092480;28;20109;-51
2020/12/23 03:53:22;;;;;;;26.20;2.63;;;12.20;99.90;;;;;;5092366;28;20043;-50
2020/12/23 03:55:47;;;;;;;25.38;2.60;;;12.20;99.90;;;;;;5091861;28;20028;-49
2020/12/23 03:58:13;;;;;;;28.23;2.72;;;12.30;99.90;;;;;;5092036;28;20032;-52
2020/12/23 04:00:39;;;;;;;21.75;3.08;;;12.30;99.90;;;;;;5092007;28;20063;-52
2020/12/23 04:03:05;;;;;;;25.38;2.45;;;12.30;99.90;;;;;;5092218;28;20529;-54
2020/12/23 04:05:30;;;;;;;25.77;2.53;;;12.30;99.90;;;;;;5092094;28;20039;-49
2020/12/23 04:07:56;;;;;;;38.00;3.08;;;12.30;99.90;;;;;;5091964;28;20024;-51
2020/12/23 04:10:22;;;;;;;29.30;3.28;;;12.30;99.90;;;;;;5092075;28;20036;-49
2020/12/23 04:12:48;;;;;;;25.65;3.67;;;12.30;99.90;;;;;;5092226;28;20343;-51
2020/12/23 04:15:13;;;;;;;36.38;3.08;;;12.30;99.90;;;;;;5091655;28;20109;-51
2020/12/23 04:17:39;;;;;;;21.20;2.85;;;12.30;99.90;;;;;;5091724;28;20103;-52
2020/12/23 04:20:07;;;;;;;35.65;3.67;;;12.30;99.90;;;;;;5091935;28;20382;-50
2020/12/23 04:22:33;;;;;;;39.38;3.42;;;12.40;99.90;;;;;;5091539;28;20035;-51
2020/12/23 04:25:05;;;;;;;37.97;3.67;;;12.30;99.90;;;;;;5091812;28;20042;-51
2020/12/23 04:27:30;;;;;;;38.85;3.05;;;12.30;99.90;;;;;;5091442;28;20085;-50
2020/12/23 04:29:56;;;;;;;43.25;3.83;;;12.40;99.90;;;;;;5090907;28;20409;-51
2020/12/23 04:32:22;;;;;;;40.60;3.17;;;12.40;99.90;;;;;;5091578;28;20107;-52
2020/12/23 04:34:48;;;;;;;18.15;2.72;;;12.40;99.90;;;;;;5091756;28;20024;-52
2020/12/23 04:37:13;;;;;;;19.05;2.85;;;12.40;99.90;;;;;;5091676;28;20645;-51
2020/12/23 04:39:39;;;;;;;20.92;3.05;;;12.50;99.90;;;;;;5091543;28;20136;-50
2020/12/23 04:42:05;;;;;;;20.48;1.90;;;12.50;99.90;;;;;;5091444;28;20040;-52
2020/12/23 04:44:31;;;;;;;14.57;2.13;;;12.60;99.90;;;;;;5088303;28;20032;-52
2020/12/23 04:46:58;;;;;;;30.05;2.55;;;12.50;99.90;;;;;;5091335;28;20111;-51
2020/12/23 04:49:24;;;;;;;20.48;2.17;;;12.50;99.90;;;;;;5091322;28;20047;-51
2020/12/23 04:51:54;;;;;;;16.17;2.20;;;12.50;99.90;;;;;;5091191;28;20024;-51
2020/12/23 04:54:21;;;;;;;22.33;3.25;;;12.60;99.90;;;;;;5091285;28;20034;-49
2020/12/23 04:56:47;;;;;;;21.75;2.67;;;12.60;99.90;;;;;;5091225;28;20114;-52
2020/12/23 04:59:14;;;;;;;29.10;3.17;;;12.60;99.90;;;;;;5090931;28;20028;-51
2020/12/23 05:01:39;;;;;;;44.50;4.05;;;12.60;99.90;;;;;;5091190;28;20590;-52
2020/12/23 05:04:06;;;;;;;32.53;3.50;;;12.70;99.90;;;;;;5090884;28;20036;-52
2020/12/23 05:06:35;;;;;;;18.00;2.78;;;12.70;99.90;;;;;;5090966;28;20063;-51
2020/12/23 05:09:03;;;;;;;25.52;2.72;;;12.60;99.90;;;;;;5091055;28;20114;-51
2020/12/23 05:11:31;;;;;;;29.98;3.25;;;12.60;99.90;;;;;;5090534;28;20016;-52
2020/12/23 05:13:56;;;;;;;21.52;2.20;;;12.60;99.90;;;;;;5090656;28;20016;-52
2020/12/23 05:16:23;;;;;;;16.67;3.63;;;12.60;99.90;;;;;;5090854;28;20028;-50
2020/12/23 05:18:54;;;;;;;18.38;2.00;;;12.60;99.90;;;;;;5090665;28;20025;-52
2020/12/23 05:21:21;;;;;;;18.52;2.22;;;12.60;99.90;;;;;;5090598;28;20504;-51
2020/12/23 05:23:49;;;;;;;20.45;1.92;;;12.50;99.90;;;;;;5090836;28;20083;-52
2020/12/23 05:26:15;;;;;;;17.55;1.98;;;12.50;99.90;;;;;;5086817;28;20044;-52
2020/12/23 05:28:44;;;;;;;17.25;1.83;;;12.50;99.90;;;;;;5070990;28;20036;-50
2020/12/23 05:31:12;;;;;;;16.92;2.42;;;12.50;99.90;;;;;;5090365;28;20020;-50
2020/12/23 05:33:40;;;;;;;19.55;2.83;;;12.60;99.90;;;;;;5090272;28;20036;-50
2020/12/23 05:36:12;;;;;;;25.40;2.45;;;12.60;99.90;;;;;;5090447;28;20040;-50
2020/12/23 05:38:38;;;;;;;17.70;2.38;;;12.60;99.90;;;;;;5090404;28;20028;-52
2020/12/23 05:41:12;;;;;;;15.32;2.28;;;12.60;99.90;;;;;;5089928;28;20139;-53
2020/12/23 05:43:38;;;;;;;14.13;1.92;;;12.50;99.90;;;;;;5090228;28;20501;-51
2020/12/23 05:46:06;;;;;;;9.07;1.70;;;12.50;99.90;;;;;;5090552;28;20090;-51
2020/12/23 05:48:34;;;;;;;12.80;1.60;;;12.50;99.90;;;;;;5072524;28;20032;-52
2020/12/23 05:51:05;;;;;;;13.75;2.40;;;12.60;99.90;;;;;;5069637;28;20071;-51
2020/12/23 05:53:33;;;;;;;18.30;2.15;;;12.60;99.90;;;;;;5069088;28;20032;-53
2020/12/23 05:56:00;;;;;;;16.85;2.85;;;12.60;99.90;;;;;;5069496;28;20180;-50
2020/12/23 05:58:34;;;;;;;11.45;2.80;;;12.60;99.90;;;;;;5069204;28;20039;-51
2020/12/23 06:01:01;;;;;;;22.75;5.40;;;12.70;99.90;;;;;;5069692;28;20071;-53
2020/12/23 06:03:55;;;;;;;17.50;6.38;;;12.60;99.90;;;;;;5076113;28;20043;-51
2020/12/23 06:06:23;;;;;;;28.05;8.88;;;12.60;99.90;;;;;;5088480;28;20077;-50
2020/12/23 06:08:51;;;;;;;23.42;7.55;;;12.60;99.90;;;;;;5071291;28;20478;-51
2020/12/23 06:11:49;;;;;;;22.42;7.47;;;12.50;99.90;;;;;;5068914;28;20036;-53
2020/12/23 06:14:31;;;;;;;28.67;5.65;;;12.50;99.90;;;;;;5068424;28;20162;-52
2020/12/23 06:16:59;;;;;;;29.95;5.63;;;12.50;99.90;;;;;;5051779;28;20770;-53
2020/12/23 06:19:36;;;;;;;26.88;4.72;;;12.60;99.90;;;;;;5050914;28;20076;-54
2020/12/23 06:22:06;;;;;;;37.33;5.30;;;12.60;99.90;;;;;;5067263;28;20028;-51
2020/12/23 06:24:32;;;;;;;31.30;4.30;;;12.60;99.90;;;;;;5084290;28;20125;-52
2020/12/23 06:27:00;;;;;;;29.90;4.70;;;12.60;99.90;;;;;;5083298;28;20059;-55
2020/12/23 06:29:33;;;;;;;25.70;3.95;;;12.60;99.90;;;;;;5085624;28;20070;-51
2020/12/23 06:32:07;;;;;;;27.58;3.90;;;12.60;99.90;;;;;;5084770;28;20032;-52
2020/12/23 06:34:36;;;;;;;27.65;4.68;;;12.60;99.90;;;;;;5082825;28;20051;-53
2020/12/23 06:37:28;;;;;;;25.70;4.88;;;12.60;99.90;;;;;;5085645;28;20051;-51
2020/12/23 06:39:55;;;;;;;29.02;5.22;;;12.60;99.90;;;;;;5086562;28;20341;-52
2020/12/23 06:42:20;;;;;;;37.45;4.97;;;12.60;99.90;;;;;;5073765;28;20109;-52
2020/12/23 06:44:46;;;;;;;25.38;4.90;;;12.60;99.90;;;;;;5072950;28;20542;-50
2020/12/23 06:47:11;;;;;;;31.67;4.45;;;12.50;99.90;;;;;;5082064;28;20024;-52
2020/12/23 06:49:45;;;;;;;25.60;4.13;;;12.50;99.90;;;;;;5079439;28;20040;-53
2020/12/23 06:52:26;;;;;;;44.08;4.05;;;12.50;99.90;;;;;;5083825;28;20036;-50
2020/12/23 06:55:00;;;;;;;30.67;5.20;;;12.50;99.90;;;;;;5082011;28;20032;-52
2020/12/23 06:57:38;;;;;;;34.72;3.90;;;12.50;99.90;;;;;;5074315;28;20514;-51
2020/12/23 07:00:19;;;;;;;33.45;4.47;;;12.60;99.90;;;;;;5083755;28;20131;-50
2020/12/23 07:02:56;;;;;;;34.78;4.38;;;12.60;99.90;;;;;;5071459;28;20028;-50
2020/12/23 07:05:21;;;;;;;35.65;4.22;;;12.60;99.90;;;;;;5079197;28;20026;-52
2020/12/23 07:07:49;;;;;;;37.92;3.85;;;12.60;99.90;;;;;;5085669;28;20448;-51
2020/12/23 07:10:25;;;;;;;26.08;4.18;;;12.50;99.90;;;;;;5072034;28;20032;-50
2020/12/23 07:13:00;;;;;;;31.23;3.85;;;12.60;99.90;;;;;;5076792;28;20031;-51
2020/12/23 07:15:28;;;;;;;39.30;3.58;;;12.60;99.90;;;;;;5071856;28;20040;-51
2020/12/23 07:18:02;;;;;;;37.75;4.28;;;12.50;99.90;;;;;;5076139;28;20045;-50
2020/12/23 07:20:40;;;;;;;26.25;3.53;;;12.60;99.90;;;;;;5080366;28;20054;-50
2020/12/23 07:23:08;;;;;;;33.58;4.25;;;12.60;99.90;;;;;;5067318;28;20205;-50
2020/12/23 07:25:36;;;;;;;25.15;3.53;;;12.50;99.90;;;;;;5067463;28;20467;-51
2020/12/23 07:28:04;;;;;;;23.45;2.10;;;12.50;99.90;;;;;;5067057;28;20089;-49
2020/12/23 07:30:34;;;;;;;23.73;4.97;;;12.60;99.90;;;;;;5069307;28;20555;-49
2020/12/23 07:33:21;;;;;;;20.45;3.33;;;12.60;99.90;;;;;;5074592;28;20044;-48
2020/12/23 07:35:52;;;;;;;12.43;2.25;;;12.60;99.90;;;;;;5062769;28;20024;-52
2020/12/23 07:38:19;;;;;;;29.42;3.10;;;12.60;99.90;;;;;;5081026;28;20103;-52
2020/12/23 07:40:45;;;;;;;20.08;3.95;;;12.60;99.90;;;;;;5068556;28;20439;-50
2020/12/23 07:43:13;;;;;;;22.75;3.17;;;12.60;99.90;;;;;;5067619;28;20275;-50
2020/12/23 07:45:39;;;;;;;24.58;3.72;;;12.60;99.90;;;;;;5074600;28;20048;-51
2020/12/23 07:48:07;;;;;;;20.67;3.40;;;12.60;99.90;;;;;;5084435;28;20098;-50
2020/12/23 07:50:35;;;;;;;27.75;3.58;;;12.60;99.90;;;;;;5064367;28;20122;-51
2020/12/23 07:53:16;;;;;;;31.10;3.65;;;12.60;99.90;;;;;;5079765;28;20029;-50
2020/12/23 07:55:44;;;;;;;25.70;3.60;;;12.60;99.90;;;;;;5089510;28;20035;-49
2020/12/23 07:58:10;;;;;;;18.73;3.08;;;12.60;99.90;;;;;;5082379;28;20020;-50
2020/12/23 08:00:37;;;;;;;18.17;2.78;;;12.60;99.90;;;;;;5080944;28;20035;-49
2020/12/23 08:03:04;;;;;;;25.45;3.28;;;12.60;99.90;;;;;;5079105;28;20118;-50
2020/12/23 08:05:30;;;;;;;27.75;2.97;;;12.60;99.90;;;;;;5087197;28;20086;-51
2020/12/23 08:07:56;;;;;;;23.65;3.80;;;12.60;99.90;;;;;;5073491;28;20886;-50
2020/12/23 08:10:21;;;;;;;35.85;5.03;;;12.60;99.90;;;;;;5090091;28;20028;-53
2020/12/23 08:12:59;;;;;;;34.33;3.38;;;12.60;99.90;;;;;;5068425;28;20549;-52
2020/12/23 08:15:25;;;;;;;27.67;4.70;;;12.60;99.90;;;;;;5089753;28;20044;-50
2020/12/23 08:18:05;;;;;;;54.95;6.72;;;12.60;99.90;;;;;;5070964;28;20419;-51
2020/12/23 08:20:32;;;;;;;60.17;5.13;;;12.60;99.90;;;;;;5076605;28;20047;-51
2020/12/23 08:22:59;;;;;;;60.17;6.35;;;12.60;99.90;;;;;;5078189;28;20592;-51
2020/12/23 08:25:26;;;;;;;59.47;5.18;;;12.50;99.90;;;;;;5083208;28;20075;-50
2020/12/23 08:27:54;;;;;;;59.40;6.57;;;12.50;99.90;;;;;;5067683;28;20039;-54
2020/12/23 08:30:26;;;;;;;53.35;4.80;;;12.60;99.90;;;;;;5072179;28;20067;-52
2020/12/23 08:33:05;;;;;;;29.02;3.95;;;12.50;99.90;;;;;;5085742;28;20036;-50
2020/12/23 08:35:44;;;;;;;36.97;3.78;;;12.60;99.90;;;;;;5068954;28;20448;-53
2020/12/23 08:38:17;;;;;;;32.38;3.35;;;12.60;99.90;;;;;;5072836;28;20039;-53
2020/12/23 08:40:47;;;;;;;;;;;12.50;99.90;;;;;;5082757;28;20508;-54
2020/12/23 08:43:23;;;;;;;26.90;3.67;;;12.60;99.90;;;;;;5092402;28;20467;-53
2020/12/23 08:45:50;;;;;;;33.45;3.85;;;12.50;99.90;;;;;;5109607;28;20550;-52
2020/12/23 08:48:26;;;;;;;39.63;4.40;;;12.50;99.90;;;;;;5085665;28;20033;-53
2020/12/23 08:50:59;;;;;;;32.42;4.35;;;12.50;99.90;;;;;;5069234;28;20145;-52
2020/12/23 08:53:34;;;;;;;28.80;3.40;;;12.50;99.90;;;;;;5069263;28;20036;-52
2020/12/23 08:56:01;;;;;;;33.05;3.67;;;12.50;99.90;;;;;;5068942;28;20044;-50
2020/12/23 08:58:28;;;;;;;30.27;4.13;;;12.40;99.90;;;;;;5068848;28;20359;-52
2020/12/23 09:01:01;;;;;;;40.10;3.35;;;12.40;99.90;;;;;;5069249;28;20094;-49
2020/12/23 09:03:28;;;;;;;28.23;3.55;;;12.40;99.90;;;;;;5071890;28;20036;-50
2020/12/23 09:05:57;;;;;;;44.70;4.43;;;12.40;99.90;;;;;;5085245;28;20047;-50
2020/12/23 09:08:25;;;;;;;29.17;3.70;;;12.40;99.90;;;;;;5085879;28;20063;-50
2020/12/23 09:10:58;;;;;;;51.78;4.75;;;12.30;99.90;;;;;;5071083;28;20035;-50
2020/12/23 09:13:32;;;;;;;39.28;4.28;;;12.30;99.90;;;;;;5076486;28;20032;-49
2020/12/23 09:16:01;;;;;;;40.78;4.32;;;12.30;99.90;;;;;;5069203;28;20036;-51
2020/12/23 09:18:26;;;;;;;49.03;6.15;;;12.30;99.90;;;;;;5071503;28;20056;-50
2020/12/23 09:21:00;;;;;;;31.48;4.43;;;12.30;99.90;;;;;;5069056;28;20093;-51
2020/12/23 09:23:26;;;;;;;;;;;12.30;99.90;;;;;;5071471;28;20413;-52
2020/12/23 09:25:52;;;;;;;29.42;4.28;;;12.30;99.90;;;;;;5068362;28;19913;-52
2020/12/23 09:28:18;;;;;;;38.83;4.35;;;12.30;99.90;;;;;;5080560;28;20699;-52
2020/12/23 09:30:49;;;;;;;43.78;6.68;;;12.30;99.90;;;;;;5075532;28;20036;-52
2020/12/23 09:33:19;;;;;;;46.00;5.50;;;12.30;99.90;;;;;;5050029;28;20028;-54
2020/12/23 09:35:47;;;;;;;41.38;4.15;;;12.40;99.90;;;;;;5067803;28;20782;-53
2020/12/23 09:38:24;;;;;;;62.10;5.78;;;12.40;99.90;;;;;;5068337;28;20035;-50
2020/12/23 09:40:52;;;;;;;56.47;5.15;;;12.40;99.90;;;;;;5073029;28;20040;-51
2020/12/23 09:43:23;;;;;;;45.95;4.35;;;12.40;99.90;;;;;;5080693;28;20024;-50
2020/12/23 09:45:51;;;;;;;62.55;5.63;;;12.40;99.90;;;;;;5080524;28;20039;-49
2020/12/23 09:48:18;;;;;;;54.47;4.80;;;12.40;99.90;;;;;;5070717;28;20028;-51
2020/12/23 09:50:45;;;;;;;39.35;5.43;;;12.40;99.90;;;;;;5077688;28;20633;-49
2020/12/23 09:53:11;;;;;;;30.35;4.35;;;12.50;99.90;;;;;;5079133;28;20032;-51
2020/12/23 09:55:41;;;;;;;43.88;4.18;;;12.50;99.90;;;;;;5070045;28;20033;-52
2020/12/23 09:58:06;;;;;;;34.17;4.28;;;12.50;99.90;;;;;;5067825;28;20036;-50
2020/12/23 10:00:32;;;;;;;28.52;4.07;;;12.40;99.90;;;;;;5068027;28;20048;-50
2020/12/23 10:02:58;;;;;;;44.25;5.03;;;12.40;99.90;;;;;;5067643;28;20139;-51
2020/12/23 10:05:23;;;;;;;22.83;3.13;;;12.50;99.90;;;;;;5068258;28;20497;-50
2020/12/23 10:07:49;;;;;;;42.58;4.40;;;12.50;99.90;;;;;;5066959;28;20032;-49
2020/12/23 10:10:15;;;;;;;38.50;3.97;;;12.60;99.90;;;;;;5079927;28;20028;-51
2020/12/23 10:12:41;;;;;;;33.20;3.47;;;12.60;99.90;;;;;;5069582;28;20078;-52
2020/12/23 10:15:07;;;;;;;28.40;4.25;;;12.70;99.90;;;;;;5087133;28;20470;-48
2020/12/23 10:17:37;;;;;;;34.78;3.33;;;12.80;99.90;;;;;;5084476;28;20145;-50
2020/12/23 10:20:08;;;;;;;20.50;3.10;;;13.00;99.90;;;;;;5076640;28;20054;-50
2020/12/23 10:22:34;;;;;;;37.00;4.00;;;13.10;99.90;;;;;;5081624;28;20028;-52
2020/12/23 10:25:00;;;;;;;47.75;3.78;;;13.10;99.90;;;;;;5062545;28;20039;-51
2020/12/23 10:27:26;;;;;;;33.80;3.67;;;13.20;99.90;;;;;;5082408;28;20379;-49
2020/12/23 10:29:52;;;;;;;20.25;2.72;;;13.20;99.90;;;;;;5079926;28;20035;-49
2020/12/23 10:32:19;;;;;;;38.67;3.95;;;13.10;99.90;;;;;;5087126;28;20039;-49
2020/12/23 10:34:45;;;;;;;23.75;3.28;;;13.10;99.90;;;;;;5051873;28;20363;-52
2020/12/23 10:37:15;;;;;;;26.67;2.67;;;13.10;99.90;;;;;;5053676;28;20043;-51
2020/12/23 10:39:41;;;;;;;36.80;3.75;;;13.10;99.90;;;;;;5087874;28;20051;-50
2020/12/23 10:42:06;;;;;;;36.30;4.38;;;13.10;99.90;;;;;;5087571;28;20032;-50
2020/12/23 10:44:32;;;;;;;23.00;3.10;;;13.10;99.90;;;;;;5084174;28;20028;-50
2020/12/23 10:46:59;;;;;;;32.22;3.50;;;13.10;99.90;;;;;;5068833;28;20072;-50
2020/12/23 10:49:25;;;;;;;26.52;3.70;;;13.10;99.90;;;;;;5087577;28;20505;-52
2020/12/23 10:51:52;;;;;;;34.65;4.38;;;13.10;99.90;;;;;;5067994;28;20106;-51
2020/12/23 10:54:18;;;;;;;27.67;3.35;;;13.10;99.90;;;;;;5065753;28;20127;-50
2020/12/23 10:56:44;;;;;;;37.28;4.45;;;13.00;99.90;;;;;;5087128;28;20024;-50
2020/12/23 10:59:10;;;;;;;36.40;4.10;;;13.00;99.90;;;;;;5086355;28;20024;-53
2020/12/23 11:01:35;;;;;;;34.33;4.15;;;13.00;99.90;;;;;;5087113;28;20032;-49
2020/12/23 11:04:01;;;;;;;41.28;3.83;;;13.00;99.90;;;;;;5086171;28;20028;-50
2020/12/23 11:06:27;;;;;;;42.40;4.63;;;13.10;99.90;;;;;;5082645;28;20032;-50
2020/12/23 11:08:53;;;;;;;20.40;3.30;;;13.10;99.90;;;;;;5084849;28;20074;-49
2020/12/23 11:11:19;;;;;;;34.05;4.20;;;13.10;99.90;;;;;;5084728;28;20536;-50
2020/12/23 11:13:45;;;;;;;32.80;3.95;;;13.10;99.90;;;;;;5074551;28;20032;-50
2020/12/23 11:16:18;;;;;;;38.85;4.70;;;13.20;99.90;;;;;;5082767;28;20516;-53
2020/12/23 11:18:45;;;;;;;29.13;3.78;;;13.20;99.90;;;;;;5084539;28;20043;-51
2020/12/23 11:21:15;;;;;;;41.38;4.57;;;13.10;99.90;;;;;;5081666;28;20063;-51
2020/12/23 11:23:41;;;;;;;35.58;4.03;;;13.00;99.90;;;;;;5085239;28;20131;-51
2020/12/23 11:26:21;;;;;;;32.72;3.63;;;13.00;99.90;;;;;;5079205;28;20044;-51
2020/12/23 11:28:47;;;;;;;45.90;3.80;;;13.00;99.90;;;;;;5077596;28;20039;-52
2020/12/23 11:31:15;;;;;;;33.42;4.38;;;13.10;99.90;;;;;;5089088;28;20024;-50
2020/12/23 11:33:42;;;;;;;42.65;4.28;;;13.00;99.90;;;;;;5088784;28;20123;-52
2020/12/23 11:36:08;;;;;;;30.17;3.97;;;13.00;99.90;;;;;;5087284;28;20081;-51
2020/12/23 11:38:34;;;;;;;32.50;3.55;;;13.00;99.90;;;;;;5087779;28;20434;-51
2020/12/23 11:41:00;;;;;;;36.95;3.58;;;13.00;99.90;;;;;;5089683;28;20512;-51
2020/12/23 11:43:25;;;;;;;29.42;4.05;;;13.10;99.90;;;;;;5088400;28;20320;-51
2020/12/23 11:45:52;;;;;;;51.42;5.60;;;13.00;99.90;;;;;;5089538;28;20028;-52
2020/12/23 11:48:17;;;;;;;30.02;5.00;;;13.00;99.90;;;;;;5060087;28;20036;-50
2020/12/23 11:50:44;;;;;;;36.00;5.05;;;13.00;99.90;;;;;;5083490;28;20441;-52
2020/12/23 11:53:10;;;;;;;29.25;4.35;;;13.20;99.90;;;;;;5071149;28;20456;-52
2020/12/23 11:55:37;;;;;;;23.63;3.05;;;13.40;99.90;;;;;;5083204;28;20050;-51
2020/12/23 11:58:03;;;;;;;28.35;4.07;;;13.40;99.90;;;;;;5084521;28;20040;-52
2020/12/23 12:00:29;;;;;;;21.67;2.90;;;13.30;99.90;;;;;;5081595;28;20423;-51
2020/12/23 12:02:54;;;;;;;38.05;4.10;;;13.50;99.90;;;;;;5075654;28;20032;-51
2020/12/23 12:05:20;;;;;;;33.65;3.70;;;13.60;99.90;;;;;;5088249;28;20496;-50
2020/12/23 12:07:46;;;;;;;20.83;3.55;;;13.50;99.90;;;;;;5084073;28;20039;-50
2020/12/23 12:10:14;;;;;;;22.98;2.53;;;13.30;99.90;;;;;;5089679;28;20056;-52
2020/12/23 12:12:40;;;;;;;33.85;4.28;;;13.20;99.90;;;;;;5083407;28;20252;-51
2020/12/23 12:15:06;;;;;;;19.40;2.70;;;13.20;99.90;;;;;;5087386;28;20036;-52
2020/12/23 12:17:32;;;;;;;29.60;4.05;;;13.20;99.90;;;;;;5084459;28;20107;-51
2020/12/23 12:19:57;;;;;;;15.93;2.45;;;13.20;99.90;;;;;;5084368;28;20135;-51
2020/12/23 12:22:23;;;;;;;15.20;2.60;;;13.20;99.90;;;;;;5077322;28;20028;-50
2020/12/23 12:24:49;;;;;;;19.25;2.78;;;13.10;99.90;;;;;;5086218;28;20041;-50
2020/12/23 12:27:14;;;;;;;24.33;2.78;;;13.10;99.90;;;;;;5081604;28;20501;-51
2020/12/23 12:29:41;;;;;;;18.40;3.42;;;13.10;99.90;;;;;;5086839;28;20024;-51
2020/12/23 12:32:07;;;;;;;28.38;2.83;;;13.10;99.90;;;;;;5088098;28;20371;-51
2020/12/23 12:34:33;;;;;;;32.80;3.13;;;13.10;99.90;;;;;;5087520;28;20468;-51
2020/12/23 12:36:59;;;;;;;26.80;3.72;;;13.20;99.90;;;;;;5085800;28;20028;-52
2020/12/23 12:39:25;;;;;;;28.85;4.03;;;13.30;99.90;;;;;;5081339;28;20130;-50
2020/12/23 12:41:51;;;;;;;21.45;3.22;;;13.20;99.90;;;;;;5075338;28;20032;-51